Time;durP1;ratioP1;P1;durP2;ratioP2;P2;SDS_P1;SDS_P2;PMS_P1;PMS_P2;Temp;Humidity;BMP_temperature;BMP_pressure;BME280_temperature;BME280_humidity;BME280_pressure;Samples;Min_cycle;Max_cycle;Signal;HPM_P1;HPM_P2
2023/04/08 00:00:46;;;;;;;;;;;;;;;7.34;88.53;98081.88;4380309;32;19967;-79
2023/04/08 00:03:12;;;;;;;;;;;;;;;7.43;88.76;98079.84;4379652;32;19978;-79
2023/04/08 00:05:39;;;;;;;;;;;;;;;7.64;87.35;98080.09;4379922;32;19983;-79
2023/04/08 00:08:06;;;;;;;;;;;;;;;7.77;86.83;98084.81;4379653;32;20448;-79
2023/04/08 00:10:33;;;;;;;;;;;;;;;7.99;85.09;98079.00;4380195;32;19966;-79
2023/04/08 00:12:59;;;;;;;;;;;;;;;7.81;86.12;98080.41;4380344;32;20030;-79
2023/04/08 00:15:26;;;;;;;;;;;;;;;7.77;85.86;98079.69;4380073;32;19978;-79
2023/04/08 00:17:53;;;;;;;;;;;;;;;7.70;86.00;98077.34;4380210;32;20035;-79
2023/04/08 00:20:21;;;;;;;;;;;;;;;7.76;86.10;98078.00;4379012;32;20024;-79
2023/04/08 00:22:48;;;;;;;;;;;;;;;7.49;87.65;98076.25;4379861;32;19970;-79
2023/04/08 00:25:14;;;;;;;;;;;;;;;7.34;88.78;98084.44;4380279;32;19997;-79
2023/04/08 00:27:41;;;;;;;;;;;;;;;7.84;85.48;98081.16;4379286;32;19989;-79
2023/04/08 00:30:08;;;;;;;;;;;;;;;7.54;86.79;98082.94;4379233;32;20496;-80
2023/04/08 00:32:35;;;;;;;;;;;;;;;7.48;87.96;98082.28;4380120;32;19982;-80
2023/04/08 00:35:02;;;;;;;;;;;;;;;7.96;85.10;98094.50;4380180;32;20329;-80
2023/04/08 00:37:30;;;;;;;;;;;;;;;7.68;86.38;98077.41;4379773;32;20373;-79
2023/04/08 00:39:56;;;;;;;;;;;;;;;7.20;88.52;98080.50;4379977;32;20012;-79
2023/04/08 00:42:23;;;;;;;;;;;;;;;7.29;88.28;98087.09;4380082;32;20032;-79
2023/04/08 00:44:50;;;;;;;;;;;;;;;7.76;86.21;98078.00;4379753;32;19974;-79
2023/04/08 00:47:17;;;;;;;;;;;;;;;7.71;86.67;98091.88;4380043;32;19974;-80
2023/04/08 00:49:43;;;;;;;;;;;;;;;7.92;85.32;98087.78;4379716;32;20360;-80
2023/04/08 00:52:10;;;;;;;;;;;;;;;7.84;85.57;98093.16;4378395;32;19986;-80
2023/04/08 00:54:37;;;;;;;;;;;;;;;7.39;87.72;98087.69;4379969;32;19996;-80
2023/04/08 00:57:04;;;;;;;;;;;;;;;7.66;86.18;98092.00;4378773;32;20392;-80
2023/04/08 00:59:32;;;;;;;;;;;;;;;7.49;87.74;98084.81;4378126;32;19980;-79
2023/04/08 01:02:06;;;;;;;;;;;;;;;7.72;86.35;98086.69;4379921;32;19997;-80
2023/04/08 01:04:43;;;;;;;;;;;;;;;7.37;88.48;98079.19;4379569;32;19992;-80
2023/04/08 01:07:22;;;;;;;;;;;;;;;6.77;91.76;98073.16;4379612;32;19985;-80
2023/04/08 01:09:51;;;;;;;;;;;;;;;6.80;92.18;98077.38;4379511;32;20329;-79
2023/04/08 01:12:20;;;;;;;;;;;;;;;5.96;98.32;98090.63;4378239;32;19998;-79
2023/04/08 01:14:47;;;;;;;;;;;;;;;6.46;95.81;98088.50;4379711;32;19982;-80
2023/04/08 01:17:14;;;;;;;;;;;;;;;6.97;92.27;98088.84;4379585;32;19966;-79
2023/04/08 01:19:41;;;;;;;;;;;;;;;6.96;92.86;98081.22;4377800;32;19981;-79
2023/04/08 01:22:12;;;;;;;;;;;;;;;7.05;92.25;98078.41;4379692;32;19986;-79
2023/04/08 01:24:40;;;;;;;;;;;;;;;7.22;90.69;98085.59;4378443;32;20021;-79
2023/04/08 01:27:07;;;;;;;;;;;;;;;7.39;89.43;98079.97;4377935;32;19978;-79
2023/04/08 01:29:34;;;;;;;;;;;;;;;7.58;88.14;98088.84;4379276;32;19958;-79
2023/04/08 01:32:01;;;;;;;;;;;;;;;7.65;88.61;98086.91;4379542;32;20069;-79
2023/04/08 01:34:27;;;;;;;;;;;;;;;7.82;87.11;98092.38;4377870;32;19994;-79
2023/04/08 01:36:54;;;;;;;;;;;;;;;7.40;88.46;98091.94;4378269;32;20272;-79
2023/04/08 01:39:23;;;;;;;;;;;;;;;7.56;88.48;98092.34;4379140;32;20037;-79
2023/04/08 01:41:50;;;;;;;;;;;;;;;7.40;89.20;98091.94;4380168;32;20319;-79
2023/04/08 01:44:17;;;;;;;;;;;;;;;7.46;89.29;98095.16;4380202;32;20004;-79
2023/04/08 01:46:43;;;;;;;;;;;;;;;7.31;89.68;98090.47;4381019;32;19970;-79
2023/04/08 01:49:10;;;;;;;;;;;;;;;7.53;88.82;98094.09;4379868;32;19962;-79
2023/04/08 01:51:37;;;;;;;;;;;;;;;7.77;87.87;98094.25;4381285;32;19979;-79
2023/04/08 01:54:04;;;;;;;;;;;;;;;7.54;88.98;98095.75;4380989;32;20396;-79
2023/04/08 01:56:31;;;;;;;;;;;;;;;7.91;86.45;98094.66;4380080;32;19983;-79
2023/04/08 01:58:58;;;;;;;;;;;;;;;7.64;88.38;98085.22;4381266;32;20285;-79
2023/04/08 02:01:25;;;;;;;;;;;;;;;7.88;87.11;98088.78;4379687;32;19982;-79
2023/04/08 02:03:55;;;;;;;;;;;;;;;7.60;88.11;98084.47;4381185;32;19997;-79
2023/04/08 02:06:22;;;;;;;;;;;;;;;7.70;88.25;98087.63;4379825;32;20435;-79
2023/04/08 02:08:49;;;;;;;;;;;;;;;7.90;86.99;98087.00;4380802;32;20317;-79
2023/04/08 02:11:16;;;;;;;;;;;;;;;7.91;86.42;98086.13;4381030;32;20442;-80
2023/04/08 02:13:43;;;;;;;;;;;;;;;7.81;87.45;98085.56;4381154;32;19978;-79
2023/04/08 02:16:15;;;;;;;;;;;;;;;7.65;87.92;98085.16;4379631;32;20412;-79
2023/04/08 02:18:43;;;;;;;;;;;;;;;7.68;87.75;98079.97;4381153;32;19965;-80
2023/04/08 02:21:16;;;;;;;;;;;;;;;7.64;87.93;98085.22;4379800;32;20364;-79
2023/04/08 02:23:45;;;;;;;;;;;;;;;7.77;87.07;98083.97;4379614;32;19989;-80
2023/04/08 02:26:13;;;;;;;;;;;;;;;7.92;87.12;98092.94;4379894;32;19970;-80
2023/04/08 02:28:40;;;;;;;;;;;;;;;7.69;87.11;98081.63;4379611;32;19966;-79
2023/04/08 02:31:08;;;;;;;;;;;;;;;7.71;87.48;98079.03;4379595;32;19982;-80
2023/04/08 02:33:35;;;;;;;;;;;;;;;7.66;87.77;98080.91;4379828;32;20006;-80
2023/04/08 02:36:02;;;;;;;;;;;;;;;7.75;87.18;98086.56;4379485;32;20311;-80
2023/04/08 02:38:29;;;;;;;;;;;;;;;7.93;86.52;98084.31;4380973;32;19962;-79
2023/04/08 02:40:56;;;;;;;;;;;;;;;7.78;87.30;98083.94;4379668;32;20397;-79
2023/04/08 02:43:31;;;;;;;;;;;;;;;7.81;87.33;98090.69;4380554;32;20231;-80
2023/04/08 02:46:02;;;;;;;;;;;;;;;7.65;87.70;98092.03;4380988;32;19969;-80
2023/04/08 02:48:30;;;;;;;;;;;;;;;7.74;88.09;98081.47;4380894;32;20033;-79
2023/04/08 02:50:56;;;;;;;;;;;;;;;8.11;85.34;98092.31;4378430;32;19973;-79
2023/04/08 02:53:23;;;;;;;;;;;;;;;7.43;88.60;98082.41;4380923;32;19974;-79
2023/04/08 02:55:50;;;;;;;;;;;;;;;7.31;91.36;98080.19;4380758;32;19974;-79
2023/04/08 02:58:16;;;;;;;;;;;;;;;7.35;90.23;98089.50;4380381;32;20041;-79
2023/04/08 03:00:43;;;;;;;;;;;;;;;7.72;87.04;98089.25;4380712;32;19975;-79
2023/04/08 03:03:10;;;;;;;;;;;;;;;7.36;88.05;98088.63;4380799;32;20315;-79
2023/04/08 03:05:37;;;;;;;;;;;;;;;7.07;89.03;98089.44;4379272;32;19988;-79
2023/04/08 03:08:05;;;;;;;;;;;;;;;7.17;90.39;98088.31;4380521;32;20227;-79
2023/04/08 03:10:32;;;;;;;;;;;;;;;7.06;91.66;98089.50;4380245;32;19989;-79
2023/04/08 03:12:59;;;;;;;;;;;;;;;7.25;89.79;98088.09;4380727;32;19974;-79
2023/04/08 03:15:26;;;;;;;;;;;;;;;7.06;91.41;98082.63;4380724;32;19982;-79
2023/04/08 03:17:52;;;;;;;;;;;;;;;6.73;93.63;98081.84;4380257;32;19970;-79
2023/04/08 03:20:19;;;;;;;;;;;;;;;6.90;92.79;98082.22;4380635;32;19974;-79
2023/04/08 03:22:46;;;;;;;;;;;;;;;7.27;91.56;98088.06;4380643;32;20467;-79
2023/04/08 03:25:13;;;;;;;;;;;;;;;6.54;94.00;98085.75;4380355;32;19970;-79
2023/04/08 03:27:39;;;;;;;;;;;;;;;7.15;92.44;98087.50;4380605;32;19962;-79
2023/04/08 03:30:06;;;;;;;;;;;;;;;7.20;91.37;98082.25;4380569;32;19996;-79
2023/04/08 03:32:33;;;;;;;;;;;;;;;7.51;89.96;98083.03;4380260;32;20308;-79
2023/04/08 03:35:00;;;;;;;;;;;;;;;7.27;89.99;98088.87;4380607;32;19974;-79
2023/04/08 03:37:27;;;;;;;;;;;;;;;7.26;90.37;98084.62;4380633;32;19970;-79
2023/04/08 03:39:54;;;;;;;;;;;;;;;7.45;89.13;98082.38;4380167;32;19974;-79
2023/04/08 03:42:21;;;;;;;;;;;;;;;7.80;87.97;98094.16;4380547;32;19982;-79
2023/04/08 03:44:47;;;;;;;;;;;;;;;7.72;88.12;98091.81;4380442;32;19992;-79
2023/04/08 03:47:14;;;;;;;;;;;;;;;7.31;89.05;98084.50;4380155;32;19978;-80
2023/04/08 03:49:41;;;;;;;;;;;;;;;7.43;89.30;98090.09;4380305;32;20399;-79
2023/04/08 03:52:08;;;;;;;;;;;;;;;7.70;88.24;98090.19;4380496;32;20040;-80
2023/04/08 03:54:34;;;;;;;;;;;;;;;8.10;86.35;98094.94;4380121;32;20041;-79
2023/04/08 03:57:01;;;;;;;;;;;;;;;8.24;84.58;98100.44;4380437;32;19965;-79
2023/04/08 03:59:28;;;;;;;;;;;;;;;8.12;85.02;98108.56;4380377;32;20037;-79
2023/04/08 04:01:55;;;;;;;;;;;;;;;7.93;86.12;98108.28;4380039;32;19982;-79
2023/04/08 04:04:22;;;;;;;;;;;;;;;8.11;85.06;98105.16;4380321;32;20041;-80
2023/04/08 04:06:49;;;;;;;;;;;;;;;8.08;85.72;98117.22;4379797;32;20018;-79
2023/04/08 04:09:16;;;;;;;;;;;;;;;8.06;85.03;98114.72;4380158;32;19982;-79
2023/04/08 04:11:42;;;;;;;;;;;;;;;7.88;86.22;98117.03;4380259;32;19997;-80
2023/04/08 04:14:09;;;;;;;;;;;;;;;8.00;85.59;98117.50;4380025;32;20340;-79
2023/04/08 04:16:36;;;;;;;;;;;;;;;7.99;85.74;98123.53;4380333;32;20085;-80
2023/04/08 04:19:03;;;;;;;;;;;;;;;7.69;87.05;98127.88;4380002;32;19978;-79
2023/04/08 04:21:30;;;;;;;;;;;;;;;7.74;86.78;98120.84;4380054;32;19978;-79
2023/04/08 04:23:56;;;;;;;;;;;;;;;7.68;87.12;98130.47;4380194;32;19982;-79
2023/04/08 04:26:23;;;;;;;;;;;;;;;7.32;89.12;98128.06;4380228;32;20016;-79
2023/04/08 04:28:50;;;;;;;;;;;;;;;7.76;86.57;98131.94;4379756;32;19982;-79
2023/04/08 04:31:26;;;;;;;;;;;;;;;7.79;85.82;98139.56;4380069;32;19994;-79
2023/04/08 04:33:53;;;;;;;;;;;;;;;7.53;86.69;98137.72;4380194;32;19970;-79
2023/04/08 04:36:20;;;;;;;;;;;;;;;6.96;88.19;98140.22;4379740;32;20332;-79
2023/04/08 04:38:46;;;;;;;;;;;;;;;7.02;88.33;98134.94;4379911;32;19982;-79
2023/04/08 04:41:15;;;;;;;;;;;;;;;6.50;89.85;98140.56;4380089;32;20347;-80
2023/04/08 04:43:42;;;;;;;;;;;;;;;6.55;90.68;98146.41;4379786;32;20318;-79
2023/04/08 04:46:09;;;;;;;;;;;;;;;6.14;93.98;98144.84;4380041;32;19984;-79
2023/04/08 04:48:36;;;;;;;;;;;;;;;6.07;95.44;98142.44;4379904;32;20126;-79
2023/04/08 04:51:03;;;;;;;;;;;;;;;6.14;94.81;98152.53;4379547;32;20037;-79
2023/04/08 04:53:30;;;;;;;;;;;;;;;5.88;97.03;98145.41;4380004;32;19978;-79
2023/04/08 04:55:57;;;;;;;;;;;;;;;5.00;100.00;98142.94;4379629;32;19970;-79
2023/04/08 04:58:24;;;;;;;;;;;;;;;5.46;100.00;98153.97;4379766;32;20036;-79
2023/04/08 05:00:51;;;;;;;;;;;;;;;4.88;100.00;98144.88;4379898;32;19982;-79
2023/04/08 05:03:17;;;;;;;;;;;;;;;4.94;100.00;98149.03;4379519;32;19985;-79
2023/04/08 05:05:44;;;;;;;;;;;;;;;5.28;100.00;98145.81;4379826;32;19977;-79
2023/04/08 05:08:11;;;;;;;;;;;;;;;4.83;100.00;98144.13;4379415;32;19982;-79
2023/04/08 05:10:39;;;;;;;;;;;;;;;4.68;100.00;98152.06;4379412;32;19986;-79
2023/04/08 05:13:06;;;;;;;;;;;;;;;4.06;100.00;98159.03;4379734;32;19985;-79
2023/04/08 05:15:32;;;;;;;;;;;;;;;4.80;100.00;98162.09;4380772;32;19971;-79
2023/04/08 05:17:59;;;;;;;;;;;;;;;4.68;100.00;98158.88;4381005;32;20048;-79
2023/04/08 05:20:26;;;;;;;;;;;;;;;4.65;100.00;98162.34;4381598;32;19986;-79
2023/04/08 05:22:53;;;;;;;;;;;;;;;4.99;100.00;98161.72;4381398;32;19989;-79
2023/04/08 05:25:20;;;;;;;;;;;;;;;4.75;100.00;98168.12;4381083;32;20419;-79
2023/04/08 05:27:47;;;;;;;;;;;;;;;5.45;100.00;98165.09;4381368;32;20033;-79
2023/04/08 05:30:13;;;;;;;;;;;;;;;5.82;98.05;98164.31;4381440;32;20001;-79
2023/04/08 05:32:40;;;;;;;;;;;;;;;6.15;95.87;98172.97;4381023;32;20309;-79
2023/04/08 05:35:08;;;;;;;;;;;;;;;5.91;94.93;98176.09;4381302;32;19966;-79
2023/04/08 05:37:35;;;;;;;;;;;;;;;6.05;95.50;98172.34;4381373;32;19992;-79
2023/04/08 05:40:02;;;;;;;;;;;;;;;5.84;96.42;98170.22;4381017;32;19978;-79
2023/04/08 05:42:29;;;;;;;;;;;;;;;5.77;97.78;98172.09;4381311;32;19988;-79
2023/04/08 05:44:55;;;;;;;;;;;;;;;5.32;100.00;98173.06;4381082;32;19971;-79
2023/04/08 05:47:22;;;;;;;;;;;;;;;5.13;100.00;98175.97;4381238;32;19978;-79
2023/04/08 05:49:49;;;;;;;;;;;;;;;5.25;100.00;98176.59;4381085;32;19974;-79
2023/04/08 05:52:16;;;;;;;;;;;;;;;5.15;100.00;98183.59;4380860;32;20031;-79
2023/04/08 05:54:43;;;;;;;;;;;;;;;4.93;100.00;98170.38;4381226;32;19966;-79
2023/04/08 05:57:10;;;;;;;;;;;;;;;5.09;100.00;98181.97;4381183;32;20262;-79
2023/04/08 05:59:37;;;;;;;;;;;;;;;5.59;100.00;98184.44;4380699;32;19970;-79
2023/04/08 06:02:04;;;;;;;;;;;;;;;5.82;99.61;98184.78;4381282;32;19977;-79
2023/04/08 06:04:31;;;;;;;;;;;;;;;5.54;100.00;98186.25;4381231;32;19962;-79
2023/04/08 06:06:59;;;;;;;;;;;;;;;5.83;99.17;98191.59;4380556;32;20021;-79
2023/04/08 06:09:26;;;;;;;;;;;;;;;5.14;100.00;98193.00;4381034;32;20037;-79
2023/04/08 06:11:53;;;;;;;;;;;;;;;5.03;100.00;98192.34;4379744;32;19974;-79
2023/04/08 06:14:19;;;;;;;;;;;;;;;5.53;99.15;98195.66;4379654;32;19981;-79
2023/04/08 06:16:46;;;;;;;;;;;;;;;5.08;100.00;98199.91;4381176;32;20306;-79
2023/04/08 06:19:13;;;;;;;;;;;;;;;5.22;100.00;98203.94;4380970;32;19974;-79
2023/04/08 06:21:39;;;;;;;;;;;;;;;5.35;100.00;98211.38;4380709;32;20667;-79
2023/04/08 06:24:06;;;;;;;;;;;;;;;5.62;97.38;98199.72;4381078;32;19966;-79
2023/04/08 06:26:33;;;;;;;;;;;;;;;5.70;98.06;98203.81;4380987;32;20301;-79
2023/04/08 06:29:00;;;;;;;;;;;;;;;5.41;97.48;98206.94;4380471;32;19996;-79
2023/04/08 06:31:27;;;;;;;;;;;;;;;5.48;98.62;98212.81;4381306;32;19974;-79
2023/04/08 06:33:54;;;;;;;;;;;;;;;5.56;95.45;98210.09;4380976;32;19966;-79
2023/04/08 06:36:21;;;;;;;;;;;;;;;5.44;96.35;98212.03;4380559;32;20438;-79
2023/04/08 06:38:48;;;;;;;;;;;;;;;5.50;97.20;98213.59;4380841;32;20000;-79
2023/04/08 06:41:15;;;;;;;;;;;;;;;5.32;97.35;98219.94;4380606;32;19970;-79
2023/04/08 06:43:41;;;;;;;;;;;;;;;5.52;96.58;98209.31;4380899;32;19962;-79
2023/04/08 06:46:08;;;;;;;;;;;;;;;6.27;90.50;98218.84;4380884;32;19974;-79
2023/04/08 06:48:36;;;;;;;;;;;;;;;5.92;91.46;98223.88;4380456;32;19993;-79
2023/04/08 06:51:03;;;;;;;;;;;;;;;5.72;95.02;98224.25;4380798;32;19985;-79
2023/04/08 06:53:31;;;;;;;;;;;;;;;5.91;93.27;98220.47;4380857;32;20036;-79
2023/04/08 06:55:58;;;;;;;;;;;;;;;5.64;94.79;98227.00;4380493;32;19992;-79
2023/04/08 06:58:26;;;;;;;;;;;;;;;5.67;94.29;98226.09;4380667;32;20389;-79
2023/04/08 07:00:53;;;;;;;;;;;;;;;5.32;97.43;98232.75;4380727;32;19971;-79
2023/04/08 07:03:20;;;;;;;;;;;;;;;5.96;93.13;98226.38;4380537;32;19989;-79
2023/04/08 07:05:48;;;;;;;;;;;;;;;5.64;94.25;98246.63;4380842;32;19974;-79
2023/04/08 07:08:14;;;;;;;;;;;;;;;5.58;96.39;98231.38;4380385;32;19978;-79
2023/04/08 07:10:41;;;;;;;;;;;;;;;5.96;94.21;98231.47;4380361;32;19970;-79
2023/04/08 07:13:08;;;;;;;;;;;;;;;5.84;94.70;98231.69;4380663;32;19970;-79
2023/04/08 07:15:35;;;;;;;;;;;;;;;5.60;97.38;98233.03;4380759;32;19979;-79
2023/04/08 07:18:03;;;;;;;;;;;;;;;5.75;95.55;98235.31;4380288;32;19985;-79
2023/04/08 07:20:30;;;;;;;;;;;;;;;6.03;92.73;98240.69;4380699;32;20049;-79
2023/04/08 07:22:57;;;;;;;;;;;;;;;6.05;92.40;98230.41;4380681;32;19967;-79
2023/04/08 07:25:24;;;;;;;;;;;;;;;5.52;95.73;98245.97;4380249;32;20025;-79
2023/04/08 07:27:51;;;;;;;;;;;;;;;5.67;94.78;98249.13;4380649;32;19996;-79
2023/04/08 07:30:18;;;;;;;;;;;;;;;6.06;93.17;98245.78;4380180;32;19994;-79
2023/04/08 07:32:45;;;;;;;;;;;;;;;6.05;92.38;98248.34;4380539;32;19989;-79
2023/04/08 07:35:12;;;;;;;;;;;;;;;6.20;91.71;98254.87;4380560;32;19974;-79
2023/04/08 07:37:38;;;;;;;;;;;;;;;6.49;90.50;98260.19;4379679;32;19996;-79
2023/04/08 07:40:05;;;;;;;;;;;;;;;6.57;89.20;98260.00;4380508;32;19978;-79
2023/04/08 07:42:32;;;;;;;;;;;;;;;6.50;90.01;98256.75;4380602;32;19981;-79
2023/04/08 07:44:59;;;;;;;;;;;;;;;5.88;95.73;98266.62;4380183;32;20000;-79
2023/04/08 07:47:26;;;;;;;;;;;;;;;5.86;95.54;98270.94;4380535;32;19982;-79
2023/04/08 07:49:53;;;;;;;;;;;;;;;5.44;96.62;98270.87;4380225;32;19966;-79
2023/04/08 07:52:20;;;;;;;;;;;;;;;5.40;97.87;98268.41;4380031;32;19970;-79
2023/04/08 07:54:47;;;;;;;;;;;;;;;5.65;96.96;98276.47;4380468;32;19974;-79
2023/04/08 07:57:13;;;;;;;;;;;;;;;5.74;97.36;98276.28;4380470;32;20359;-79
2023/04/08 07:59:40;;;;;;;;;;;;;;;4.92;100.00;98278.63;4379849;32;20309;-79
2023/04/08 08:02:07;;;;;;;;;;;;;;;5.23;99.01;98277.25;4380439;32;19981;-79
2023/04/08 08:04:34;;;;;;;;;;;;;;;5.26;99.98;98278.91;4380450;32;20372;-79
2023/04/08 08:07:01;;;;;;;;;;;;;;;4.55;100.00;98281.75;4379843;32;20344;-79
2023/04/08 08:09:28;;;;;;;;;;;;;;;4.86;100.00;98283.84;4380222;32;20021;-79
2023/04/08 08:11:57;;;;;;;;;;;;;;;4.88;100.00;98282.09;4380245;32;19970;-79
2023/04/08 08:14:25;;;;;;;;;;;;;;;4.88;100.00;98284.66;4379966;32;19975;-79
2023/04/08 08:16:53;;;;;;;;;;;;;;;5.02;100.00;98290.41;4380392;32;19982;-79
2023/04/08 08:19:20;;;;;;;;;;;;;;;5.20;100.00;98281.53;4378545;32;20053;-79
2023/04/08 08:21:46;;;;;;;;;;;;;;;5.24;100.00;98285.75;4380332;32;19969;-79
2023/04/08 08:24:13;;;;;;;;;;;;;;;5.22;100.00;98290.06;4380208;32;20308;-79
2023/04/08 08:26:40;;;;;;;;;;;;;;;4.92;100.00;98293.97;4379909;32;19982;-79
2023/04/08 08:29:07;;;;;;;;;;;;;;;4.99;100.00;98292.97;4379952;32;19970;-79
2023/04/08 08:31:34;;;;;;;;;;;;;;;5.12;100.00;98296.22;4380201;32;20318;-79
2023/04/08 08:34:01;;;;;;;;;;;;;;;5.10;100.00;98301.31;4379850;32;20379;-79
2023/04/08 08:36:28;;;;;;;;;;;;;;;5.42;100.00;98305.03;4380153;32;19979;-79
2023/04/08 08:38:55;;;;;;;;;;;;;;;5.37;100.00;98305.12;4379899;32;19974;-79
2023/04/08 08:41:21;;;;;;;;;;;;;;;5.37;100.00;98312.81;4379691;32;20049;-79
2023/04/08 08:43:48;;;;;;;;;;;;;;;5.38;100.00;98313.66;4380085;32;20010;-79
2023/04/08 08:46:17;;;;;;;;;;;;;;;4.74;100.00;98307.03;4380100;32;20293;-79
2023/04/08 08:48:44;;;;;;;;;;;;;;;4.84;100.00;98314.53;4378754;32;20053;-79
2023/04/08 08:51:12;;;;;;;;;;;;;;;5.42;100.00;98320.38;4379573;32;19971;-79
2023/04/08 08:53:43;;;;;;;;;;;;;;;5.56;100.00;98318.44;4379957;32;20343;-79
2023/04/08 08:56:11;;;;;;;;;;;;;;;5.62;99.07;98322.59;4379678;32;20318;-79
2023/04/08 08:58:40;;;;;;;;;;;;;;;5.93;98.08;98328.84;4379915;32;20322;-79
2023/04/08 09:01:26;;;;;;;;;;;;;;;5.65;99.15;98327.69;4379800;32;19974;-79
2023/04/08 09:04:25;;;;;;;;;;;;;;;5.88;97.49;98332.34;4379763;32;20001;-79
2023/04/08 09:07:08;;;;;;;;;;;;;;;5.98;96.21;98333.91;4370219;32;19982;-79
2023/04/08 09:09:51;;;;;;;;;;;;;;;5.90;98.25;98334.03;4379348;32;19978;-79
2023/04/08 09:12:18;;;;;;;;;;;;;;;6.44;93.66;98336.34;4379664;32;20012;-79
2023/04/08 09:14:45;;;;;;;;;;;;;;;6.01;95.21;98334.66;4378555;32;19996;-79
2023/04/08 09:17:12;;;;;;;;;;;;;;;5.72;96.73;98334.34;4379417;32;20467;-79
2023/04/08 09:19:38;;;;;;;;;;;;;;;6.32;94.15;98337.44;4379548;32;20329;-79
2023/04/08 09:22:06;;;;;;;;;;;;;;;6.34;94.62;98338.25;4379643;32;19966;-79
2023/04/08 09:24:33;;;;;;;;;;;;;;;6.31;95.37;98355.44;4378131;32;19992;-79
2023/04/08 09:27:00;;;;;;;;;;;;;;;6.38;95.27;98351.88;4379626;32;19982;-79
2023/04/08 09:29:27;;;;;;;;;;;;;;;6.71;92.58;98350.28;4379036;32;19993;-79
2023/04/08 09:31:59;;;;;;;;;;;;;;;7.47;90.06;98351.03;4379566;32;19966;-79
2023/04/08 09:34:27;;;;;;;;;;;;;;;7.14;90.38;98359.56;4378338;32;20033;-79
2023/04/08 09:36:54;;;;;;;;;;;;;;;7.21;89.43;98348.25;4379200;32;19979;-79
2023/04/08 09:39:21;;;;;;;;;;;;;;;6.82;92.40;98356.03;4378182;32;19982;-79
2023/04/08 09:41:49;;;;;;;;;;;;;;;6.96;91.34;98351.41;4379319;32;19962;-79
2023/04/08 09:44:18;;;;;;;;;;;;;;;6.88;91.86;98361.00;4378952;32;19978;-79
2023/04/08 09:46:54;;;;;;;;;;;;;;;6.60;93.04;98363.34;4379307;32;20677;-79
2023/04/08 09:49:24;;;;;;;;;;;;;;;7.31;88.22;98362.53;4377922;32;19982;-79
2023/04/08 09:52:07;;;;;;;;;;;;;;;6.77;93.50;98365.53;4378846;32;19966;-79
2023/04/08 09:54:39;;;;;;;;;;;;;;;6.89;93.52;98359.28;4377984;32;19987;-79
2023/04/08 09:57:10;;;;;;;;;;;;;;;6.68;95.88;98356.31;4377988;32;19990;-79
2023/04/08 09:59:37;;;;;;;;;;;;;;;6.63;93.13;98353.00;4377518;32;19974;-79
2023/04/08 10:02:05;;;;;;;;;;;;;;;7.14;92.99;98354.44;4380931;32;19966;-79
2023/04/08 10:04:31;;;;;;;;;;;;;;;7.59;90.28;98352.44;4380892;32;20314;-79
2023/04/08 10:07:00;;;;;;;;;;;;;;;7.41;92.45;98364.00;4379785;32;20316;-79
2023/04/08 10:09:26;;;;;;;;;;;;;;;6.91;93.87;98357.50;4380986;32;19974;-79
2023/04/08 10:11:53;;;;;;;;;;;;;;;7.81;89.58;98363.81;4380881;32;19980;-79
2023/04/08 10:14:21;;;;;;;;;;;;;;;7.62;91.03;98360.03;4380032;32;20021;-80
2023/04/08 10:16:47;;;;;;;;;;;;;;;7.11;91.50;98362.19;4381157;32;19985;-79
2023/04/08 10:19:33;;;;;;;;;;;;;;;7.65;90.06;98359.12;4379354;32;19978;-79
2023/04/08 10:22:00;;;;;;;;;;;;;;;8.04;88.53;98358.06;4381154;32;19989;-79
2023/04/08 10:24:27;;;;;;;;;;;;;;;8.30;85.53;98353.94;4381100;32;19974;-79
2023/04/08 10:26:53;;;;;;;;;;;;;;;8.19;87.84;98354.22;4380760;32;20048;-79
2023/04/08 10:29:20;;;;;;;;;;;;;;;8.90;84.09;98358.97;4380761;32;20008;-80
2023/04/08 10:31:47;;;;;;;;;;;;;;;7.94;89.28;98353.22;4380942;32;19974;-80
2023/04/08 10:34:23;;;;;;;;;;;;;;;8.62;87.36;98353.03;4380569;32;20121;-79
2023/04/08 10:36:50;;;;;;;;;;;;;;;7.90;90.11;98352.47;4381002;32;19996;-79
2023/04/08 10:39:16;;;;;;;;;;;;;;;7.94;89.46;98355.78;4379643;32;19988;-79
2023/04/08 10:41:44;;;;;;;;;;;;;;;9.13;84.64;98350.53;4380704;32;19981;-80
2023/04/08 10:44:20;;;;;;;;;;;;;;;8.20;85.33;98360.22;4380858;32;20298;-80
2023/04/08 10:46:47;;;;;;;;;;;;;;;8.53;86.39;98355.84;4380617;32;19986;-80
2023/04/08 10:49:14;;;;;;;;;;;;;;;8.33;85.06;98356.41;4380878;32;19986;-80
2023/04/08 10:51:42;;;;;;;;;;;;;;;8.88;80.66;98353.06;4380846;32;19970;-80
2023/04/08 10:54:13;;;;;;;;;;;;;;;8.45;83.10;98357.81;4380535;32;19988;-80
2023/04/08 10:57:06;;;;;;;;;;;;;;;8.33;86.27;98361.53;4380975;32;19982;-80
2023/04/08 10:59:33;;;;;;;;;;;;;;;7.64;91.19;98365.97;4379514;32;19970;-80
2023/04/08 11:02:01;;;;;;;;;;;;;;;7.49;92.91;98361.25;4380427;32;19970;-80
2023/04/08 11:04:28;;;;;;;;;;;;;;;7.41;94.25;98358.84;4380803;32;19982;-80
2023/04/08 11:06:55;;;;;;;;;;;;;;;7.71;92.18;98362.37;4380640;32;20318;-80
2023/04/08 11:09:22;;;;;;;;;;;;;;;8.18;88.57;98361.97;4380164;32;19982;-80
2023/04/08 11:11:48;;;;;;;;;;;;;;;8.02;89.87;98362.41;4380237;32;19966;-80
2023/04/08 11:14:16;;;;;;;;;;;;;;;7.23;94.07;98360.19;4380603;32;19982;-80
2023/04/08 11:16:42;;;;;;;;;;;;;;;7.94;88.40;98366.06;4379346;32;19986;-80
2023/04/08 11:19:09;;;;;;;;;;;;;;;7.49;89.60;98353.53;4379361;32;19970;-80
2023/04/08 11:21:37;;;;;;;;;;;;;;;8.27;86.88;98359.12;4380702;32;20029;-80
2023/04/08 11:24:15;;;;;;;;;;;;;;;8.24;86.03;98362.63;4379415;32;19973;-80
2023/04/08 11:26:42;;;;;;;;;;;;;;;8.11;87.60;98356.16;4380828;32;20352;-80
2023/04/08 11:29:12;;;;;;;;;;;;;;;8.30;84.78;98357.34;4378987;32;20031;-80
2023/04/08 11:31:40;;;;;;;;;;;;;;;8.27;84.94;98356.56;4380711;32;20012;-80
2023/04/08 11:34:07;;;;;;;;;;;;;;;7.75;87.83;98351.12;4380473;32;19998;-80
2023/04/08 11:36:35;;;;;;;;;;;;;;;7.37;89.39;98356.44;4380296;32;20431;-80
2023/04/08 11:39:09;;;;;;;;;;;;;;;7.97;88.85;98361.66;4380426;32;19981;-80
2023/04/08 11:41:37;;;;;;;;;;;;;;;7.70;88.87;98358.12;4380503;32;20342;-80
2023/04/08 11:44:05;;;;;;;;;;;;;;;7.56;89.75;98359.38;4380149;32;19970;-80
2023/04/08 11:46:33;;;;;;;;;;;;;;;8.01;87.32;98353.00;4379442;32;20005;-80
2023/04/08 11:49:05;;;;;;;;;;;;;;;7.73;90.36;98360.59;4380354;32;19990;-80
2023/04/08 11:51:33;;;;;;;;;;;;;;;7.18;94.05;98353.47;4380178;32;20037;-80
2023/04/08 11:54:03;;;;;;;;;;;;;;;6.05;98.01;98343.12;4379212;32;19978;-80
2023/04/08 11:56:32;;;;;;;;;;;;;;;6.28;99.98;98352.94;4380569;32;20044;-79
2023/04/08 11:58:59;;;;;;;;;;;;;;;6.63;98.45;98347.03;4379927;32;20459;-79
2023/04/08 12:01:26;;;;;;;;;;;;;;;6.75;98.01;98345.94;4380430;32;20029;-80
2023/04/08 12:04:00;;;;;;;;;;;;;;;7.30;94.97;98347.19;4380111;32;19978;-79
2023/04/08 12:06:27;;;;;;;;;;;;;;;7.41;94.27;98342.62;4380701;32;19997;-80
2023/04/08 12:08:54;;;;;;;;;;;;;;;7.51;90.49;98351.78;4380189;32;20023;-80
2023/04/08 12:11:21;;;;;;;;;;;;;;;7.83;90.31;98345.78;4379901;32;19978;-79
2023/04/08 12:13:49;;;;;;;;;;;;;;;8.12;85.83;98345.00;4379160;32;19978;-80
2023/04/08 12:16:16;;;;;;;;;;;;;;;7.58;90.49;98348.19;4380350;32;19992;-80
2023/04/08 12:18:43;;;;;;;;;;;;;;;7.75;89.96;98350.28;4379903;32;19978;-80
2023/04/08 12:21:10;;;;;;;;;;;;;;;7.81;87.80;98347.56;4380291;32;20026;-80
2023/04/08 12:23:37;;;;;;;;;;;;;;;7.72;89.56;98356.34;4380023;32;19974;-80
2023/04/08 12:26:03;;;;;;;;;;;;;;;6.96;95.32;98353.97;4378768;32;20232;-79
2023/04/08 12:28:30;;;;;;;;;;;;;;;6.85;95.01;98347.41;4380158;32;19988;-80
2023/04/08 12:30:57;;;;;;;;;;;;;;;6.82;96.67;98352.63;4380193;32;19974;-80
2023/04/08 12:33:24;;;;;;;;;;;;;;;6.73;97.29;98348.53;4379738;32;19993;-79
2023/04/08 12:35:51;;;;;;;;;;;;;;;7.03;95.03;98351.28;4380165;32;19982;-79
2023/04/08 12:38:17;;;;;;;;;;;;;;;6.94;95.69;98352.31;4380139;32;19990;-80
2023/04/08 12:40:44;;;;;;;;;;;;;;;6.66;97.94;98354.66;4379655;32;19977;-79
2023/04/08 12:43:11;;;;;;;;;;;;;;;6.78;100.00;98356.94;4380069;32;19975;-80
2023/04/08 12:45:38;;;;;;;;;;;;;;;6.91;96.23;98363.50;4380060;32;20036;-80
2023/04/08 12:48:04;;;;;;;;;;;;;;;6.60;100.00;98358.22;4379604;32;19989;-80
2023/04/08 12:50:31;;;;;;;;;;;;;;;6.87;97.91;98355.91;4379981;32;19970;-79
2023/04/08 12:52:58;;;;;;;;;;;;;;;7.06;97.55;98356.31;4378416;32;19978;-80
2023/04/08 12:55:25;;;;;;;;;;;;;;;6.87;96.34;98358.47;4379981;32;20028;-79
2023/04/08 12:57:52;;;;;;;;;;;;;;;6.78;97.49;98351.81;4379974;32;19974;-79